sensor_id;sensor_type;location;lat;lon;timestamp;P1;durP1;ratioP1;P2;durP2;ratioP2
16890;SDS011;8562;52.246;20.966;2022-07-10T00:00:31;1.37;;;1.20;;
16890;SDS011;8562;52.246;20.966;2022-07-10T00:02:58;0.87;;;0.83;;
16890;SDS011;8562;52.246;20.966;2022-07-10T00:05:24;3.50;;;1.53;;
16890;SDS011;8562;52.246;20.966;2022-07-10T00:07:51;1.20;;;1.00;;
16890;SDS011;8562;52.246;20.966;2022-07-10T00:10:18;1.47;;;1.10;;
16890;SDS011;8562;52.246;20.966;2022-07-10T00:12:44;1.10;;;0.93;;
16890;SDS011;8562;52.246;20.966;2022-07-10T00:15:11;1.93;;;1.60;;
16890;SDS011;8562;52.246;20.966;2022-07-10T00:17:38;1.40;;;1.10;;
16890;SDS011;8562;52.246;20.966;2022-07-10T00:20:06;3.13;;;1.47;;
16890;SDS011;8562;52.246;20.966;2022-07-10T00:22:33;2.77;;;1.10;;
16890;SDS011;8562;52.246;20.966;2022-07-10T00:25:06;1.33;;;0.80;;
16890;SDS011;8562;52.246;20.966;2022-07-10T00:27:32;1.77;;;1.20;;
16890;SDS011;8562;52.246;20.966;2022-07-10T00:29:59;1.73;;;1.10;;
16890;SDS011;8562;52.246;20.966;2022-07-10T00:32:25;2.93;;;1.27;;
16890;SDS011;8562;52.246;20.966;2022-07-10T00:34:51;2.00;;;1.07;;
16890;SDS011;8562;52.246;20.966;2022-07-10T00:37:17;2.43;;;1.17;;
16890;SDS011;8562;52.246;20.966;2022-07-10T00:39:46;2.63;;;1.87;;
16890;SDS011;8562;52.246;20.966;2022-07-10T00:42:12;2.07;;;1.43;;
16890;SDS011;8562;52.246;20.966;2022-07-10T00:44:39;2.40;;;1.20;;
16890;SDS011;8562;52.246;20.966;2022-07-10T00:47:06;1.70;;;1.40;;
16890;SDS011;8562;52.246;20.966;2022-07-10T00:49:32;5.20;;;1.30;;
16890;SDS011;8562;52.246;20.966;2022-07-10T00:51:59;2.00;;;1.50;;
16890;SDS011;8562;52.246;20.966;2022-07-10T00:54:26;1.60;;;1.50;;
16890;SDS011;8562;52.246;20.966;2022-07-10T00:56:52;2.03;;;1.40;;
16890;SDS011;8562;52.246;20.966;2022-07-10T00:59:19;1.60;;;1.30;;
16890;SDS011;8562;52.246;20.966;2022-07-10T01:01:46;2.03;;;1.43;;
16890;SDS011;8562;52.246;20.966;2022-07-10T01:04:13;1.60;;;1.40;;
16890;SDS011;8562;52.246;20.966;2022-07-10T01:06:39;1.33;;;1.23;;
16890;SDS011;8562;52.246;20.966;2022-07-10T01:09:06;2.43;;;1.60;;
16890;SDS011;8562;52.246;20.966;2022-07-10T01:11:33;2.43;;;1.33;;
16890;SDS011;8562;52.246;20.966;2022-07-10T01:14:02;2.00;;;1.40;;
16890;SDS011;8562;52.246;20.966;2022-07-10T01:16:28;2.83;;;1.70;;
16890;SDS011;8562;52.246;20.966;2022-07-10T01:18:55;2.57;;;1.30;;
16890;SDS011;8562;52.246;20.966;2022-07-10T01:23:50;1.37;;;1.27;;
16890;SDS011;8562;52.246;20.966;2022-07-10T01:26:17;3.40;;;1.37;;
16890;SDS011;8562;52.246;20.966;2022-07-10T01:28:43;1.90;;;1.70;;
16890;SDS011;8562;52.246;20.966;2022-07-10T01:31:09;1.90;;;1.70;;
16890;SDS011;8562;52.246;20.966;2022-07-10T01:33:35;2.07;;;1.87;;
16890;SDS011;8562;52.246;20.966;2022-07-10T01:36:01;2.17;;;1.80;;
16890;SDS011;8562;52.246;20.966;2022-07-10T01:38:28;2.87;;;1.57;;
16890;SDS011;8562;52.246;20.966;2022-07-10T01:40:54;1.50;;;1.30;;
16890;SDS011;8562;52.246;20.966;2022-07-10T01:43:21;2.37;;;1.60;;
16890;SDS011;8562;52.246;20.966;2022-07-10T01:45:47;2.00;;;1.57;;
16890;SDS011;8562;52.246;20.966;2022-07-10T01:48:14;2.63;;;1.60;;
16890;SDS011;8562;52.246;20.966;2022-07-10T01:50:40;2.37;;;1.53;;
16890;SDS011;8562;52.246;20.966;2022-07-10T01:53:06;1.80;;;1.60;;
16890;SDS011;8562;52.246;20.966;2022-07-10T01:55:32;2.47;;;1.50;;
16890;SDS011;8562;52.246;20.966;2022-07-10T01:57:58;1.70;;;1.33;;
16890;SDS011;8562;52.246;20.966;2022-07-10T02:00:27;1.93;;;1.33;;
16890;SDS011;8562;52.246;20.966;2022-07-10T02:02:53;1.60;;;1.50;;
16890;SDS011;8562;52.246;20.966;2022-07-10T02:05:46;2.30;;;1.80;;
16890;SDS011;8562;52.246;20.966;2022-07-10T02:08:12;1.90;;;1.63;;
16890;SDS011;8562;52.246;20.966;2022-07-10T02:10:39;2.27;;;1.83;;
16890;SDS011;8562;52.246;20.966;2022-07-10T02:13:05;2.43;;;1.57;;
16890;SDS011;8562;52.246;20.966;2022-07-10T02:15:31;3.57;;;1.83;;
16890;SDS011;8562;52.246;20.966;2022-07-10T02:17:57;2.80;;;1.47;;
16890;SDS011;8562;52.246;20.966;2022-07-10T02:20:23;3.20;;;1.70;;
16890;SDS011;8562;52.246;20.966;2022-07-10T02:22:49;1.30;;;1.20;;
16890;SDS011;8562;52.246;20.966;2022-07-10T02:25:15;1.70;;;1.50;;
16890;SDS011;8562;52.246;20.966;2022-07-10T02:27:42;1.73;;;1.37;;
16890;SDS011;8562;52.246;20.966;2022-07-10T02:30:08;2.07;;;1.50;;
16890;SDS011;8562;52.246;20.966;2022-07-10T02:32:34;1.87;;;1.60;;
16890;SDS011;8562;52.246;20.966;2022-07-10T02:35:00;2.03;;;1.80;;
16890;SDS011;8562;52.246;20.966;2022-07-10T02:37:26;1.57;;;1.23;;
16890;SDS011;8562;52.246;20.966;2022-07-10T02:39:52;2.57;;;1.80;;
16890;SDS011;8562;52.246;20.966;2022-07-10T02:42:18;2.87;;;1.77;;
16890;SDS011;8562;52.246;20.966;2022-07-10T02:44:45;2.10;;;1.10;;
16890;SDS011;8562;52.246;20.966;2022-07-10T02:47:11;2.37;;;1.50;;
16890;SDS011;8562;52.246;20.966;2022-07-10T02:49:37;1.87;;;1.47;;
16890;SDS011;8562;52.246;20.966;2022-07-10T02:52:03;1.90;;;1.70;;
16890;SDS011;8562;52.246;20.966;2022-07-10T02:54:30;1.77;;;1.50;;
16890;SDS011;8562;52.246;20.966;2022-07-10T02:56:56;2.00;;;1.60;;
16890;SDS011;8562;52.246;20.966;2022-07-10T02:59:22;1.73;;;1.40;;
16890;SDS011;8562;52.246;20.966;2022-07-10T03:01:48;2.20;;;1.60;;
16890;SDS011;8562;52.246;20.966;2022-07-10T03:04:14;1.80;;;1.63;;
16890;SDS011;8562;52.246;20.966;2022-07-10T03:06:40;1.93;;;1.73;;
16890;SDS011;8562;52.246;20.966;2022-07-10T03:09:07;1.60;;;1.47;;
16890;SDS011;8562;52.246;20.966;2022-07-10T03:11:33;2.33;;;1.77;;
16890;SDS011;8562;52.246;20.966;2022-07-10T03:13:59;3.53;;;1.70;;
16890;SDS011;8562;52.246;20.966;2022-07-10T03:16:25;2.60;;;1.33;;
16890;SDS011;8562;52.246;20.966;2022-07-10T03:18:51;1.60;;;1.20;;
16890;SDS011;8562;52.246;20.966;2022-07-10T03:21:17;1.50;;;1.20;;
16890;SDS011;8562;52.246;20.966;2022-07-10T03:23:43;2.23;;;1.63;;
16890;SDS011;8562;52.246;20.966;2022-07-10T03:26:10;1.50;;;1.37;;
16890;SDS011;8562;52.246;20.966;2022-07-10T03:28:36;2.33;;;1.90;;
16890;SDS011;8562;52.246;20.966;2022-07-10T03:31:02;1.47;;;1.37;;
16890;SDS011;8562;52.246;20.966;2022-07-10T03:33:28;1.47;;;1.37;;
16890;SDS011;8562;52.246;20.966;2022-07-10T03:35:54;1.77;;;1.33;;
16890;SDS011;8562;52.246;20.966;2022-07-10T03:38:20;1.60;;;1.50;;
16890;SDS011;8562;52.246;20.966;2022-07-10T03:40:46;1.47;;;1.37;;
16890;SDS011;8562;52.246;20.966;2022-07-10T03:43:16;2.17;;;1.80;;
16890;SDS011;8562;52.246;20.966;2022-07-10T03:45:42;2.70;;;2.00;;
16890;SDS011;8562;52.246;20.966;2022-07-10T03:48:08;2.37;;;1.83;;
16890;SDS011;8562;52.246;20.966;2022-07-10T03:50:34;1.43;;;1.33;;
16890;SDS011;8562;52.246;20.966;2022-07-10T03:53:00;1.80;;;1.57;;
16890;SDS011;8562;52.246;20.966;2022-07-10T03:55:27;2.43;;;1.80;;
16890;SDS011;8562;52.246;20.966;2022-07-10T03:57:53;3.80;;;1.83;;
16890;SDS011;8562;52.246;20.966;2022-07-10T04:00:29;2.27;;;1.70;;
16890;SDS011;8562;52.246;20.966;2022-07-10T04:02:58;3.27;;;1.73;;
16890;SDS011;8562;52.246;20.966;2022-07-10T04:05:25;1.97;;;1.80;;
16890;SDS011;8562;52.246;20.966;2022-07-10T04:07:51;1.90;;;1.73;;
16890;SDS011;8562;52.246;20.966;2022-07-10T04:10:18;2.97;;;1.90;;
16890;SDS011;8562;52.246;20.966;2022-07-10T04:12:44;2.77;;;1.63;;
16890;SDS011;8562;52.246;20.966;2022-07-10T04:15:11;1.90;;;1.63;;
16890;SDS011;8562;52.246;20.966;2022-07-10T04:17:37;5.13;;;1.53;;
16890;SDS011;8562;52.246;20.966;2022-07-10T04:20:03;4.37;;;1.60;;
16890;SDS011;8562;52.246;20.966;2022-07-10T04:22:29;2.13;;;1.50;;
16890;SDS011;8562;52.246;20.966;2022-07-10T04:24:56;1.73;;;1.40;;
16890;SDS011;8562;52.246;20.966;2022-07-10T04:27:22;1.87;;;1.73;;
16890;SDS011;8562;52.246;20.966;2022-07-10T04:29:48;2.03;;;1.70;;
16890;SDS011;8562;52.246;20.966;2022-07-10T04:32:14;1.50;;;1.37;;
16890;SDS011;8562;52.246;20.966;2022-07-10T04:34:40;1.33;;;1.23;;
16890;SDS011;8562;52.246;20.966;2022-07-10T04:37:07;1.60;;;1.50;;
16890;SDS011;8562;52.246;20.966;2022-07-10T04:39:34;1.30;;;1.20;;
16890;SDS011;8562;52.246;20.966;2022-07-10T04:42:01;2.33;;;1.20;;
16890;SDS011;8562;52.246;20.966;2022-07-10T04:44:28;1.30;;;1.20;;
16890;SDS011;8562;52.246;20.966;2022-07-10T04:46:54;1.20;;;1.10;;
16890;SDS011;8562;52.246;20.966;2022-07-10T04:49:21;2.40;;;1.73;;
16890;SDS011;8562;52.246;20.966;2022-07-10T04:51:47;1.10;;;1.00;;
16890;SDS011;8562;52.246;20.966;2022-07-10T04:54:13;1.47;;;1.33;;
16890;SDS011;8562;52.246;20.966;2022-07-10T04:56:39;1.37;;;1.10;;
16890;SDS011;8562;52.246;20.966;2022-07-10T04:59:05;1.90;;;1.33;;
16890;SDS011;8562;52.246;20.966;2022-07-10T05:01:33;1.20;;;1.10;;
16890;SDS011;8562;52.246;20.966;2022-07-10T05:03:59;1.07;;;0.90;;
16890;SDS011;8562;52.246;20.966;2022-07-10T05:06:25;3.70;;;1.10;;
16890;SDS011;8562;52.246;20.966;2022-07-10T05:08:51;1.20;;;1.10;;
16890;SDS011;8562;52.246;20.966;2022-07-10T05:11:18;2.07;;;1.37;;
16890;SDS011;8562;52.246;20.966;2022-07-10T05:13:44;1.17;;;1.03;;
16890;SDS011;8562;52.246;20.966;2022-07-10T05:16:13;1.53;;;1.00;;
16890;SDS011;8562;52.246;20.966;2022-07-10T05:18:39;1.63;;;0.97;;
16890;SDS011;8562;52.246;20.966;2022-07-10T05:21:06;2.03;;;1.30;;
16890;SDS011;8562;52.246;20.966;2022-07-10T05:23:32;1.80;;;0.83;;
16890;SDS011;8562;52.246;20.966;2022-07-10T05:25:58;3.80;;;1.00;;
16890;SDS011;8562;52.246;20.966;2022-07-10T05:28:24;1.33;;;0.90;;
16890;SDS011;8562;52.246;20.966;2022-07-10T05:30:51;2.07;;;1.00;;
16890;SDS011;8562;52.246;20.966;2022-07-10T05:33:17;1.50;;;1.03;;
16890;SDS011;8562;52.246;20.966;2022-07-10T05:35:43;2.03;;;0.80;;
16890;SDS011;8562;52.246;20.966;2022-07-10T05:38:09;0.90;;;0.87;;
16890;SDS011;8562;52.246;20.966;2022-07-10T05:40:35;2.43;;;1.20;;
16890;SDS011;8562;52.246;20.966;2022-07-10T05:43:02;1.80;;;1.13;;
16890;SDS011;8562;52.246;20.966;2022-07-10T05:45:28;1.97;;;1.27;;
16890;SDS011;8562;52.246;20.966;2022-07-10T05:47:55;2.10;;;0.80;;
16890;SDS011;8562;52.246;20.966;2022-07-10T05:50:22;1.30;;;1.00;;
16890;SDS011;8562;52.246;20.966;2022-07-10T05:52:48;1.27;;;1.07;;
16890;SDS011;8562;52.246;20.966;2022-07-10T05:55:14;3.03;;;1.97;;
16890;SDS011;8562;52.246;20.966;2022-07-10T05:57:40;0.93;;;0.60;;
16890;SDS011;8562;52.246;20.966;2022-07-10T06:00:07;1.03;;;0.90;;
16890;SDS011;8562;52.246;20.966;2022-07-10T06:02:40;1.00;;;0.77;;
16890;SDS011;8562;52.246;20.966;2022-07-10T06:05:06;1.23;;;0.87;;
16890;SDS011;8562;52.246;20.966;2022-07-10T06:07:33;1.73;;;0.80;;
16890;SDS011;8562;52.246;20.966;2022-07-10T06:09:59;6.63;;;1.03;;
16890;SDS011;8562;52.246;20.966;2022-07-10T06:12:25;1.00;;;0.90;;
16890;SDS011;8562;52.246;20.966;2022-07-10T06:14:52;2.83;;;1.13;;
16890;SDS011;8562;52.246;20.966;2022-07-10T06:17:18;2.30;;;1.10;;
16890;SDS011;8562;52.246;20.966;2022-07-10T06:19:44;1.63;;;1.47;;
16890;SDS011;8562;52.246;20.966;2022-07-10T06:22:10;1.43;;;0.90;;
16890;SDS011;8562;52.246;20.966;2022-07-10T06:24:55;0.93;;;0.93;;
16890;SDS011;8562;52.246;20.966;2022-07-10T06:27:21;1.10;;;1.00;;
16890;SDS011;8562;52.246;20.966;2022-07-10T06:29:47;1.37;;;1.17;;
16890;SDS011;8562;52.246;20.966;2022-07-10T06:32:13;2.70;;;1.60;;
16890;SDS011;8562;52.246;20.966;2022-07-10T06:34:39;2.47;;;1.80;;
16890;SDS011;8562;52.246;20.966;2022-07-10T06:37:06;2.03;;;1.73;;
16890;SDS011;8562;52.246;20.966;2022-07-10T06:39:32;2.60;;;1.77;;
16890;SDS011;8562;52.246;20.966;2022-07-10T06:41:59;1.80;;;1.70;;
16890;SDS011;8562;52.246;20.966;2022-07-10T06:44:26;1.60;;;1.47;;
16890;SDS011;8562;52.246;20.966;2022-07-10T06:46:53;2.60;;;1.67;;
16890;SDS011;8562;52.246;20.966;2022-07-10T06:49:37;2.70;;;1.47;;
16890;SDS011;8562;52.246;20.966;2022-07-10T06:52:05;1.63;;;1.30;;
16890;SDS011;8562;52.246;20.966;2022-07-10T06:54:32;3.83;;;1.70;;
16890;SDS011;8562;52.246;20.966;2022-07-10T06:56:58;1.83;;;1.67;;
16890;SDS011;8562;52.246;20.966;2022-07-10T06:59:24;1.73;;;1.43;;
16890;SDS011;8562;52.246;20.966;2022-07-10T07:01:50;1.90;;;1.77;;
16890;SDS011;8562;52.246;20.966;2022-07-10T07:04:16;2.07;;;1.87;;
16890;SDS011;8562;52.246;20.966;2022-07-10T07:06:43;6.53;;;2.00;;
16890;SDS011;8562;52.246;20.966;2022-07-10T07:09:09;2.50;;;2.03;;
16890;SDS011;8562;52.246;20.966;2022-07-10T07:11:35;2.17;;;1.97;;
16890;SDS011;8562;52.246;20.966;2022-07-10T07:14:01;3.30;;;1.83;;
16890;SDS011;8562;52.246;20.966;2022-07-10T07:16:27;2.60;;;2.10;;
16890;SDS011;8562;52.246;20.966;2022-07-10T07:19:04;4.83;;;1.73;;
16890;SDS011;8562;52.246;20.966;2022-07-10T07:21:31;2.13;;;1.53;;
16890;SDS011;8562;52.246;20.966;2022-07-10T07:24:16;2.37;;;1.73;;
16890;SDS011;8562;52.246;20.966;2022-07-10T07:26:45;2.40;;;1.50;;
16890;SDS011;8562;52.246;20.966;2022-07-10T07:29:18;2.30;;;2.10;;
16890;SDS011;8562;52.246;20.966;2022-07-10T07:31:44;1.40;;;1.10;;
16890;SDS011;8562;52.246;20.966;2022-07-10T07:34:11;1.03;;;0.93;;
16890;SDS011;8562;52.246;20.966;2022-07-10T07:36:37;2.40;;;1.20;;
16890;SDS011;8562;52.246;20.966;2022-07-10T07:39:03;1.60;;;1.30;;
16890;SDS011;8562;52.246;20.966;2022-07-10T07:41:29;2.17;;;1.47;;
16890;SDS011;8562;52.246;20.966;2022-07-10T07:43:56;3.10;;;1.33;;
16890;SDS011;8562;52.246;20.966;2022-07-10T07:46:22;1.10;;;1.00;;
16890;SDS011;8562;52.246;20.966;2022-07-10T07:48:49;3.50;;;1.13;;
16890;SDS011;8562;52.246;20.966;2022-07-10T07:51:15;1.20;;;1.10;;
16890;SDS011;8562;52.246;20.966;2022-07-10T07:53:41;2.70;;;1.20;;
16890;SDS011;8562;52.246;20.966;2022-07-10T07:56:09;1.23;;;1.10;;
16890;SDS011;8562;52.246;20.966;2022-07-10T07:58:35;1.23;;;1.13;;
16890;SDS011;8562;52.246;20.966;2022-07-10T08:01:01;1.17;;;1.07;;
16890;SDS011;8562;52.246;20.966;2022-07-10T08:03:27;2.70;;;1.40;;
16890;SDS011;8562;52.246;20.966;2022-07-10T08:05:53;1.43;;;0.80;;
16890;SDS011;8562;52.246;20.966;2022-07-10T08:08:19;2.83;;;1.40;;
16890;SDS011;8562;52.246;20.966;2022-07-10T08:10:45;1.17;;;1.07;;
16890;SDS011;8562;52.246;20.966;2022-07-10T08:13:12;2.53;;;1.20;;
16890;SDS011;8562;52.246;20.966;2022-07-10T08:15:38;1.83;;;1.10;;
16890;SDS011;8562;52.246;20.966;2022-07-10T08:18:04;1.37;;;1.00;;
16890;SDS011;8562;52.246;20.966;2022-07-10T08:20:32;1.20;;;0.80;;
16890;SDS011;8562;52.246;20.966;2022-07-10T08:22:58;2.63;;;1.00;;
16890;SDS011;8562;52.246;20.966;2022-07-10T08:25:25;1.13;;;0.77;;
16890;SDS011;8562;52.246;20.966;2022-07-10T08:27:51;1.07;;;0.80;;
16890;SDS011;8562;52.246;20.966;2022-07-10T08:30:17;1.00;;;0.70;;
16890;SDS011;8562;52.246;20.966;2022-07-10T08:32:43;0.77;;;0.77;;
16890;SDS011;8562;52.246;20.966;2022-07-10T08:35:10;1.93;;;1.07;;
16890;SDS011;8562;52.246;20.966;2022-07-10T08:37:42;1.27;;;0.80;;
16890;SDS011;8562;52.246;20.966;2022-07-10T08:40:08;2.07;;;0.80;;
16890;SDS011;8562;52.246;20.966;2022-07-10T08:42:35;1.30;;;0.90;;
16890;SDS011;8562;52.246;20.966;2022-07-10T08:45:01;2.07;;;1.00;;
16890;SDS011;8562;52.246;20.966;2022-07-10T08:47:27;1.03;;;0.90;;
16890;SDS011;8562;52.246;20.966;2022-07-10T08:49:56;2.73;;;0.70;;
16890;SDS011;8562;52.246;20.966;2022-07-10T08:54:52;1.17;;;0.80;;
16890;SDS011;8562;52.246;20.966;2022-07-10T08:57:20;3.30;;;1.13;;
16890;SDS011;8562;52.246;20.966;2022-07-10T08:59:48;4.60;;;1.00;;
16890;SDS011;8562;52.246;20.966;2022-07-10T09:02:14;1.53;;;1.20;;
16890;SDS011;8562;52.246;20.966;2022-07-10T09:04:40;1.57;;;1.10;;
16890;SDS011;8562;52.246;20.966;2022-07-10T09:07:07;2.03;;;1.30;;
16890;SDS011;8562;52.246;20.966;2022-07-10T09:09:50;1.23;;;0.90;;
16890;SDS011;8562;52.246;20.966;2022-07-10T09:12:16;1.07;;;1.07;;
16890;SDS011;8562;52.246;20.966;2022-07-10T09:14:43;1.30;;;1.00;;
16890;SDS011;8562;52.246;20.966;2022-07-10T09:17:09;2.33;;;1.10;;
16890;SDS011;8562;52.246;20.966;2022-07-10T09:19:35;1.93;;;1.30;;
16890;SDS011;8562;52.246;20.966;2022-07-10T09:22:05;2.07;;;1.23;;
16890;SDS011;8562;52.246;20.966;2022-07-10T09:24:38;3.60;;;1.30;;
16890;SDS011;8562;52.246;20.966;2022-07-10T09:27:05;1.27;;;1.10;;
16890;SDS011;8562;52.246;20.966;2022-07-10T09:29:32;0.80;;;0.80;;
16890;SDS011;8562;52.246;20.966;2022-07-10T09:31:59;3.70;;;1.20;;
16890;SDS011;8562;52.246;20.966;2022-07-10T09:34:35;0.87;;;0.87;;
16890;SDS011;8562;52.246;20.966;2022-07-10T09:37:21;1.13;;;1.03;;
16890;SDS011;8562;52.246;20.966;2022-07-10T09:47:37;2.90;;;1.30;;
16890;SDS011;8562;52.246;20.966;2022-07-10T09:50:03;0.90;;;0.90;;
16890;SDS011;8562;52.246;20.966;2022-07-10T09:52:29;1.83;;;1.10;;
16890;SDS011;8562;52.246;20.966;2022-07-10T09:54:56;2.47;;;0.97;;
16890;SDS011;8562;52.246;20.966;2022-07-10T09:57:24;1.03;;;0.93;;
16890;SDS011;8562;52.246;20.966;2022-07-10T09:59:53;0.30;;;0.30;;
16890;SDS011;8562;52.246;20.966;2022-07-10T10:02:21;0.63;;;0.60;;
16890;SDS011;8562;52.246;20.966;2022-07-10T10:04:48;5.40;;;0.73;;
16890;SDS011;8562;52.246;20.966;2022-07-10T10:07:15;0.70;;;0.67;;
16890;SDS011;8562;52.246;20.966;2022-07-10T10:09:49;0.40;;;0.40;;
16890;SDS011;8562;52.246;20.966;2022-07-10T10:12:31;1.27;;;0.50;;
16890;SDS011;8562;52.246;20.966;2022-07-10T10:15:00;0.80;;;0.50;;
16890;SDS011;8562;52.246;20.966;2022-07-10T10:17:27;3.70;;;0.90;;
16890;SDS011;8562;52.246;20.966;2022-07-10T10:19:54;1.83;;;1.20;;
16890;SDS011;8562;52.246;20.966;2022-07-10T10:22:40;2.30;;;0.47;;
16890;SDS011;8562;52.246;20.966;2022-07-10T10:25:06;0.60;;;0.60;;
16890;SDS011;8562;52.246;20.966;2022-07-10T10:27:33;0.70;;;0.60;;
16890;SDS011;8562;52.246;20.966;2022-07-10T10:29:59;0.50;;;0.40;;
16890;SDS011;8562;52.246;20.966;2022-07-10T10:32:26;0.23;;;0.10;;
16890;SDS011;8562;52.246;20.966;2022-07-10T10:34:53;2.87;;;0.37;;
16890;SDS011;8562;52.246;20.966;2022-07-10T10:39:53;0.30;;;0.20;;
16890;SDS011;8562;52.246;20.966;2022-07-10T10:45:33;1.47;;;0.50;;
16890;SDS011;8562;52.246;20.966;2022-07-10T10:48:09;0.87;;;0.67;;
16890;SDS011;8562;52.246;20.966;2022-07-10T10:50:36;2.73;;;0.50;;
16890;SDS011;8562;52.246;20.966;2022-07-10T10:53:12;1.70;;;1.20;;
16890;SDS011;8562;52.246;20.966;2022-07-10T10:55:38;0.80;;;0.80;;
16890;SDS011;8562;52.246;20.966;2022-07-10T10:58:14;1.20;;;0.73;;
16890;SDS011;8562;52.246;20.966;2022-07-10T11:00:40;4.90;;;1.00;;
16890;SDS011;8562;52.246;20.966;2022-07-10T11:03:16;1.30;;;1.00;;
16890;SDS011;8562;52.246;20.966;2022-07-10T11:05:43;0.63;;;0.40;;
16890;SDS011;8562;52.246;20.966;2022-07-10T11:08:10;0.70;;;0.60;;
16890;SDS011;8562;52.246;20.966;2022-07-10T11:13:07;0.50;;;0.50;;
16890;SDS011;8562;52.246;20.966;2022-07-10T11:15:34;1.70;;;0.90;;
16890;SDS011;8562;52.246;20.966;2022-07-10T11:18:05;0.50;;;0.50;;
16890;SDS011;8562;52.246;20.966;2022-07-10T11:20:32;0.50;;;0.50;;
16890;SDS011;8562;52.246;20.966;2022-07-10T11:25:34;1.43;;;0.50;;
16890;SDS011;8562;52.246;20.966;2022-07-10T11:28:07;0.50;;;0.50;;
16890;SDS011;8562;52.246;20.966;2022-07-10T11:30:48;1.00;;;0.60;;
16890;SDS011;8562;52.246;20.966;2022-07-10T11:33:15;3.33;;;0.77;;
16890;SDS011;8562;52.246;20.966;2022-07-10T11:35:44;1.87;;;0.87;;
16890;SDS011;8562;52.246;20.966;2022-07-10T11:38:11;1.37;;;0.60;;
16890;SDS011;8562;52.246;20.966;2022-07-10T11:40:37;1.83;;;0.60;;
16890;SDS011;8562;52.246;20.966;2022-07-10T11:43:03;1.00;;;0.57;;
16890;SDS011;8562;52.246;20.966;2022-07-10T11:45:32;1.50;;;0.50;;
16890;SDS011;8562;52.246;20.966;2022-07-10T11:48:03;0.60;;;0.60;;
16890;SDS011;8562;52.246;20.966;2022-07-10T11:50:34;1.07;;;0.83;;
16890;SDS011;8562;52.246;20.966;2022-07-10T11:53:01;1.67;;;0.60;;
16890;SDS011;8562;52.246;20.966;2022-07-10T11:55:28;2.23;;;0.63;;
16890;SDS011;8562;52.246;20.966;2022-07-10T11:57:55;1.17;;;0.60;;
16890;SDS011;8562;52.246;20.966;2022-07-10T12:00:22;1.40;;;0.70;;
16890;SDS011;8562;52.246;20.966;2022-07-10T12:02:49;1.57;;;0.40;;
16890;SDS011;8562;52.246;20.966;2022-07-10T12:05:38;0.30;;;0.27;;
16890;SDS011;8562;52.246;20.966;2022-07-10T12:08:05;1.83;;;0.60;;
16890;SDS011;8562;52.246;20.966;2022-07-10T12:10:32;0.47;;;0.43;;
16890;SDS011;8562;52.246;20.966;2022-07-10T12:13:08;0.33;;;0.33;;
16890;SDS011;8562;52.246;20.966;2022-07-10T12:18:05;0.83;;;0.50;;
16890;SDS011;8562;52.246;20.966;2022-07-10T12:20:31;0.60;;;0.33;;
16890;SDS011;8562;52.246;20.966;2022-07-10T12:22:58;2.03;;;0.60;;
16890;SDS011;8562;52.246;20.966;2022-07-10T12:25:25;1.00;;;0.60;;
16890;SDS011;8562;52.246;20.966;2022-07-10T12:27:55;3.60;;;0.73;;
16890;SDS011;8562;52.246;20.966;2022-07-10T12:30:22;0.87;;;0.70;;
16890;SDS011;8562;52.246;20.966;2022-07-10T12:32:48;0.50;;;0.50;;
16890;SDS011;8562;52.246;20.966;2022-07-10T12:35:14;0.93;;;0.77;;
16890;SDS011;8562;52.246;20.966;2022-07-10T12:37:47;1.73;;;0.40;;
16890;SDS011;8562;52.246;20.966;2022-07-10T12:40:29;0.60;;;0.60;;
16890;SDS011;8562;52.246;20.966;2022-07-10T12:43:02;1.60;;;0.83;;
16890;SDS011;8562;52.246;20.966;2022-07-10T12:45:29;3.43;;;1.00;;
16890;SDS011;8562;52.246;20.966;2022-07-10T12:47:55;1.47;;;0.90;;
16890;SDS011;8562;52.246;20.966;2022-07-10T12:50:22;1.30;;;1.00;;
16890;SDS011;8562;52.246;20.966;2022-07-10T12:53:06;1.20;;;1.10;;
16890;SDS011;8562;52.246;20.966;2022-07-10T12:55:36;1.20;;;0.93;;
16890;SDS011;8562;52.246;20.966;2022-07-10T12:58:06;1.70;;;1.33;;
16890;SDS011;8562;52.246;20.966;2022-07-10T13:00:46;2.73;;;1.00;;
16890;SDS011;8562;52.246;20.966;2022-07-10T13:03:18;1.93;;;1.00;;
16890;SDS011;8562;52.246;20.966;2022-07-10T13:05:44;2.33;;;0.90;;
16890;SDS011;8562;52.246;20.966;2022-07-10T13:10:45;1.10;;;1.00;;
16890;SDS011;8562;52.246;20.966;2022-07-10T13:13:12;3.13;;;0.80;;
16890;SDS011;8562;52.246;20.966;2022-07-10T13:15:38;1.77;;;0.90;;
16890;SDS011;8562;52.246;20.966;2022-07-10T13:18:30;3.07;;;1.20;;
16890;SDS011;8562;52.246;20.966;2022-07-10T13:20:56;0.97;;;0.83;;
16890;SDS011;8562;52.246;20.966;2022-07-10T13:23:23;1.80;;;1.03;;
16890;SDS011;8562;52.246;20.966;2022-07-10T13:25:57;3.57;;;1.17;;
16890;SDS011;8562;52.246;20.966;2022-07-10T13:28:28;0.50;;;0.50;;
16890;SDS011;8562;52.246;20.966;2022-07-10T13:30:54;1.17;;;1.07;;
16890;SDS011;8562;52.246;20.966;2022-07-10T13:33:20;2.43;;;1.33;;
16890;SDS011;8562;52.246;20.966;2022-07-10T13:35:48;2.17;;;1.10;;
16890;SDS011;8562;52.246;20.966;2022-07-10T13:38:14;2.63;;;1.00;;
16890;SDS011;8562;52.246;20.966;2022-07-10T13:40:43;2.93;;;0.93;;
16890;SDS011;8562;52.246;20.966;2022-07-10T13:43:11;3.27;;;1.50;;
16890;SDS011;8562;52.246;20.966;2022-07-10T13:45:46;0.90;;;0.90;;
16890;SDS011;8562;52.246;20.966;2022-07-10T13:48:13;1.47;;;1.27;;
16890;SDS011;8562;52.246;20.966;2022-07-10T13:50:40;2.67;;;1.20;;
16890;SDS011;8562;52.246;20.966;2022-07-10T13:53:06;2.17;;;1.60;;
16890;SDS011;8562;52.246;20.966;2022-07-10T13:55:33;1.43;;;1.33;;
16890;SDS011;8562;52.246;20.966;2022-07-10T13:58:00;1.73;;;1.40;;
16890;SDS011;8562;52.246;20.966;2022-07-10T14:00:26;2.07;;;1.13;;
16890;SDS011;8562;52.246;20.966;2022-07-10T14:02:52;1.53;;;1.40;;
16890;SDS011;8562;52.246;20.966;2022-07-10T14:05:21;1.63;;;1.53;;
16890;SDS011;8562;52.246;20.966;2022-07-10T14:07:47;1.30;;;1.20;;
16890;SDS011;8562;52.246;20.966;2022-07-10T14:10:14;2.63;;;1.63;;
16890;SDS011;8562;52.246;20.966;2022-07-10T14:12:40;1.40;;;1.10;;
16890;SDS011;8562;52.246;20.966;2022-07-10T14:15:07;1.40;;;1.00;;
16890;SDS011;8562;52.246;20.966;2022-07-10T14:17:33;2.73;;;1.40;;
16890;SDS011;8562;52.246;20.966;2022-07-10T14:19:59;1.77;;;1.27;;
16890;SDS011;8562;52.246;20.966;2022-07-10T14:22:25;2.50;;;1.00;;
16890;SDS011;8562;52.246;20.966;2022-07-10T14:24:53;1.87;;;1.07;;
16890;SDS011;8562;52.246;20.966;2022-07-10T14:27:19;1.00;;;1.00;;
16890;SDS011;8562;52.246;20.966;2022-07-10T14:29:46;1.00;;;1.00;;
16890;SDS011;8562;52.246;20.966;2022-07-10T14:32:12;0.70;;;0.70;;
16890;SDS011;8562;52.246;20.966;2022-07-10T14:34:38;0.93;;;0.90;;
16890;SDS011;8562;52.246;20.966;2022-07-10T14:37:04;2.43;;;1.00;;
16890;SDS011;8562;52.246;20.966;2022-07-10T14:39:30;3.03;;;0.80;;
16890;SDS011;8562;52.246;20.966;2022-07-10T14:41:56;1.43;;;0.77;;
16890;SDS011;8562;52.246;20.966;2022-07-10T14:44:22;1.90;;;0.80;;
16890;SDS011;8562;52.246;20.966;2022-07-10T14:46:49;0.90;;;0.90;;
16890;SDS011;8562;52.246;20.966;2022-07-10T14:49:15;0.83;;;0.70;;
16890;SDS011;8562;52.246;20.966;2022-07-10T14:51:41;0.60;;;0.53;;
16890;SDS011;8562;52.246;20.966;2022-07-10T14:54:07;0.70;;;0.70;;
16890;SDS011;8562;52.246;20.966;2022-07-10T14:56:34;2.30;;;0.70;;
16890;SDS011;8562;52.246;20.966;2022-07-10T14:59:00;1.07;;;0.70;;
16890;SDS011;8562;52.246;20.966;2022-07-10T15:01:26;0.50;;;0.50;;
16890;SDS011;8562;52.246;20.966;2022-07-10T15:03:54;0.80;;;0.70;;
16890;SDS011;8562;52.246;20.966;2022-07-10T15:06:22;0.90;;;0.80;;
16890;SDS011;8562;52.246;20.966;2022-07-10T15:08:49;0.70;;;0.50;;
16890;SDS011;8562;52.246;20.966;2022-07-10T15:11:18;0.60;;;0.60;;
16890;SDS011;8562;52.246;20.966;2022-07-10T15:13:48;2.57;;;0.53;;
16890;SDS011;8562;52.246;20.966;2022-07-10T15:16:16;0.97;;;0.50;;
16890;SDS011;8562;52.246;20.966;2022-07-10T15:18:42;0.50;;;0.47;;